Time;durP1;ratioP1;P1;durP2;ratioP2;P2;SDS_P1;SDS_P2;PMS_P1;PMS_P2;Temp;Humidity;BMP_temperature;BMP_pressure;BME280_temperature;BME280_humidity;BME280_pressure;Samples;Min_cycle;Max_cycle;Signal;HPM_P1;HPM_P2
2022/08/03 00:02:21;;;;;;;2.73;1.80;;;18.70;97.30;;;;;;5036278;28;20172;-84
2022/08/03 00:04:46;;;;;;;2.50;2.30;;;18.70;97.30;;;;;;5035533;28;20233;-84
2022/08/03 00:07:12;;;;;;;3.60;2.17;;;18.60;97.30;;;;;;5036079;28;20278;-83
2022/08/03 00:09:37;;;;;;;3.03;1.70;;;18.60;97.30;;;;;;5022710;28;20231;-84
2022/08/03 00:12:03;;;;;;;1.70;1.37;;;18.60;97.30;;;;;;5036136;28;20183;-84
2022/08/03 00:14:29;;;;;;;6.27;2.63;;;18.60;97.30;;;;;;5053476;28;20204;-84
2022/08/03 00:16:55;;;;;;;2.53;2.10;;;18.60;97.30;;;;;;5024615;28;20424;-84
2022/08/03 00:19:20;;;;;;;2.90;2.70;;;18.60;97.30;;;;;;5033253;28;20195;-84
2022/08/03 00:21:46;;;;;;;5.87;3.00;;;18.60;97.30;;;;;;5053415;28;20176;-83
2022/08/03 00:24:11;;;;;;;2.73;2.17;;;18.60;97.30;;;;;;5035235;28;20251;-84
2022/08/03 00:26:37;;;;;;;1.93;1.90;;;18.60;97.30;;;;;;5035370;28;20186;-84
2022/08/03 00:29:02;;;;;;;3.60;2.33;;;18.60;97.30;;;;;;5035296;28;20684;-84
2022/08/03 00:31:28;;;;;;;3.37;2.07;;;18.60;97.30;;;;;;5035334;28;20233;-84
2022/08/03 00:33:53;;;;;;;2.50;2.30;;;18.50;97.30;;;;;;5021331;28;20196;-84
2022/08/03 00:36:19;;;;;;;4.10;2.43;;;18.50;97.30;;;;;;5035028;28;20238;-84
2022/08/03 00:38:45;;;;;;;4.80;2.53;;;18.40;97.30;;;;;;5035325;28;20192;-84
2022/08/03 00:41:10;;;;;;;1.80;1.70;;;18.40;97.30;;;;;;5034813;28;20215;-84
2022/08/03 00:43:36;;;;;;;2.70;1.93;;;18.30;97.30;;;;;;5053049;28;20187;-84
2022/08/03 00:46:01;;;;;;;3.30;2.63;;;18.30;97.30;;;;;;5025553;28;20551;-84
2022/08/03 00:48:27;;;;;;;2.83;2.63;;;18.30;97.30;;;;;;5032386;28;20199;-84
2022/08/03 00:50:53;;;;;;;3.93;2.50;;;18.30;97.30;;;;;;5035132;28;20193;-84
2022/08/03 00:53:18;;;;;;;2.33;2.13;;;18.30;97.30;;;;;;5034724;28;20196;-84
2022/08/03 00:55:44;;;;;;;6.00;2.27;;;18.30;97.30;;;;;;5034878;28;20245;-84
2022/08/03 00:58:10;;;;;;;3.00;2.43;;;18.20;97.30;;;;;;5034517;28;20203;-83
2022/08/03 01:00:38;;;;;;;2.87;2.47;;;18.20;97.30;;;;;;5052538;28;20234;-84
2022/08/03 01:03:05;;;;;;;3.27;2.50;;;18.20;97.30;;;;;;5033357;28;20418;-84
2022/08/03 01:05:51;;;;;;;2.43;2.23;;;18.20;97.30;;;;;;5052585;28;20429;-84
2022/08/03 01:08:45;;;;;;;2.13;1.97;;;18.10;97.30;;;;;;5034926;28;20454;-84
2022/08/03 01:11:29;;;;;;;2.83;2.30;;;18.10;97.30;;;;;;5034416;28;20429;-84
2022/08/03 01:14:11;;;;;;;2.03;1.93;;;18.10;97.30;;;;;;5034425;28;20502;-83
2022/08/03 01:16:51;;;;;;;7.80;2.30;;;18.10;97.30;;;;;;5023122;28;20419;-83
2022/08/03 01:19:19;;;;;;;2.83;2.63;;;18.00;97.30;;;;;;5034586;28;20434;-84
2022/08/03 01:21:59;;;;;;;3.23;2.07;;;18.00;97.30;;;;;;5034200;28;20700;-84
2022/08/03 01:24:55;;;;;;;1.90;1.63;;;18.00;97.30;;;;;;5034223;28;20414;-84
2022/08/03 01:27:46;;;;;;;6.43;2.47;;;17.90;97.30;;;;;;5034165;28;20414;-84
2022/08/03 01:30:12;;;;;;;1.80;1.77;;;17.80;97.30;;;;;;5025720;28;20426;-83
2022/08/03 01:32:54;;;;;;;2.80;1.50;;;17.80;97.30;;;;;;5034391;28;20831;-84
2022/08/03 01:36:06;;;;;;;3.90;2.37;;;17.70;97.30;;;;;;5034438;28;20437;-83
2022/08/03 01:38:34;;;;;;;1.93;1.83;;;17.70;97.30;;;;;;5033594;28;21019;-83
2022/08/03 01:41:07;;;;;;;2.80;2.57;;;17.70;97.30;;;;;;5034353;28;20458;-83
2022/08/03 01:43:35;;;;;;;2.00;1.70;;;17.70;97.30;;;;;;5033884;28;20472;-83
2022/08/03 01:46:03;;;;;;;10.70;3.37;;;17.70;97.30;;;;;;5033741;28;20445;-84
2022/08/03 01:48:30;;;;;;;1.93;1.87;;;17.70;97.30;;;;;;5034184;28;20659;-83
2022/08/03 01:50:58;;;;;;;2.37;1.93;;;17.70;97.30;;;;;;5032793;28;20411;-83
2022/08/03 01:53:24;;;;;;;2.33;2.13;;;17.60;97.30;;;;;;5033454;28;20454;-84
2022/08/03 01:55:54;;;;;;;3.30;3.10;;;17.60;97.30;;;;;;5034155;28;20502;-84
2022/08/03 01:58:23;;;;;;;3.73;2.40;;;17.60;97.30;;;;;;5029678;28;20956;-84
2022/08/03 02:00:50;;;;;;;4.20;2.47;;;17.60;97.30;;;;;;5024864;28;20418;-83
2022/08/03 02:03:17;;;;;;;2.37;2.00;;;17.60;97.30;;;;;;5051249;28;20446;-84
2022/08/03 02:05:45;;;;;;;2.03;1.90;;;17.60;97.30;;;;;;5033230;28;20430;-83
2022/08/03 02:08:12;;;;;;;3.50;2.77;;;17.60;97.30;;;;;;5028077;28;20984;-84
2022/08/03 02:10:40;;;;;;;2.20;2.00;;;17.60;97.30;;;;;;5026158;28;20433;-84
2022/08/03 02:13:09;;;;;;;2.57;2.40;;;17.60;97.30;;;;;;5033069;28;20450;-84
2022/08/03 02:15:36;;;;;;;2.50;2.30;;;17.60;97.30;;;;;;5032935;28;20515;-84
2022/08/03 02:18:04;;;;;;;4.03;2.90;;;17.50;97.30;;;;;;5033025;28;20418;-84
2022/08/03 02:20:31;;;;;;;2.33;2.03;;;17.50;97.30;;;;;;5033921;28;20417;-84
2022/08/03 02:22:57;;;;;;;2.63;2.13;;;17.50;97.30;;;;;;5020520;28;20790;-84
2022/08/03 02:25:23;;;;;;;3.00;2.57;;;17.50;97.30;;;;;;5033034;28;20426;-84
2022/08/03 02:27:56;;;;;;;3.70;2.83;;;17.50;97.30;;;;;;5014241;28;20431;-84
2022/08/03 02:30:28;;;;;;;5.23;3.23;;;17.50;97.30;;;;;;5046178;28;20660;-84
2022/08/03 02:32:55;;;;;;;1.80;1.70;;;17.50;97.30;;;;;;5032878;28;20415;-84
2022/08/03 02:35:25;;;;;;;2.80;2.37;;;17.50;97.30;;;;;;5048550;28;20430;-84
2022/08/03 02:37:55;;;;;;;2.63;1.90;;;17.50;97.30;;;;;;5045820;28;20504;-84
2022/08/03 02:40:23;;;;;;;3.47;3.27;;;17.50;97.30;;;;;;5045467;28;20421;-84
2022/08/03 02:42:52;;;;;;;2.80;2.60;;;17.50;97.30;;;;;;5042865;23;21041;-77
2022/08/03 02:45:19;;;;;;;3.23;2.63;;;17.50;97.30;;;;;;5050075;28;20430;-77
2022/08/03 02:47:47;;;;;;;4.60;2.87;;;17.40;97.30;;;;;;5044380;28;20520;-78
2022/08/03 02:50:15;;;;;;;3.50;2.47;;;17.40;97.30;;;;;;4993940;28;20624;-77
2022/08/03 02:52:43;;;;;;;2.07;1.93;;;17.40;97.30;;;;;;5003517;28;20534;-77
2022/08/03 02:55:10;;;;;;;3.07;2.33;;;17.40;97.30;;;;;;5012587;28;20424;-78
2022/08/03 02:57:38;;;;;;;2.57;2.23;;;17.30;97.30;;;;;;5012986;28;20428;-78
2022/08/03 03:00:06;;;;;;;2.90;2.53;;;17.40;97.30;;;;;;5004669;28;20457;-77
2022/08/03 03:02:33;;;;;;;4.60;3.03;;;17.30;97.30;;;;;;4994355;28;20779;-77
2022/08/03 03:05:00;;;;;;;2.90;2.63;;;17.30;97.30;;;;;;5009571;28;20843;-77
2022/08/03 03:07:26;;;;;;;2.70;2.23;;;17.20;97.30;;;;;;4989091;28;20859;-77
2022/08/03 03:09:52;;;;;;;2.33;2.13;;;17.20;97.30;;;;;;4994666;28;20475;-78
2022/08/03 03:12:19;;;;;;;2.90;2.70;;;17.20;97.30;;;;;;5002403;28;20196;-77
2022/08/03 03:14:45;;;;;;;2.50;2.33;;;17.20;97.30;;;;;;5014502;28;20462;-77
2022/08/03 03:17:14;;;;;;;6.90;2.90;;;17.20;97.30;;;;;;5013513;28;20420;-76
2022/08/03 03:19:41;;;;;;;3.87;2.87;;;17.10;97.30;;;;;;5013203;28;20204;-78
2022/08/03 03:22:07;;;;;;;5.37;4.20;;;17.10;97.30;;;;;;5011117;28;20420;-77
2022/08/03 03:24:35;;;;;;;3.30;2.53;;;17.10;97.30;;;;;;5004367;28;20424;-77
2022/08/03 03:27:01;;;;;;;3.53;2.77;;;17.00;97.30;;;;;;5015779;28;20422;-78
2022/08/03 03:29:27;;;;;;;3.03;2.70;;;17.00;97.30;;;;;;5017135;28;20447;-78
2022/08/03 03:31:53;;;;;;;5.27;2.53;;;17.00;97.30;;;;;;5034171;28;20451;-77
2022/08/03 03:34:19;;;;;;;3.27;3.10;;;17.00;97.30;;;;;;5017287;28;20201;-77
2022/08/03 03:36:45;;;;;;;2.77;2.47;;;17.00;97.30;;;;;;5017477;28;20466;-78
2022/08/03 03:39:11;;;;;;;3.87;2.30;;;16.90;97.30;;;;;;5007490;28;20445;-77
2022/08/03 03:41:38;;;;;;;3.10;2.90;;;16.90;97.30;;;;;;5000811;28;20239;-78
2022/08/03 03:44:03;;;;;;;3.30;3.10;;;16.90;97.30;;;;;;5016808;28;20459;-77
2022/08/03 03:46:30;;;;;;;2.77;2.17;;;16.90;97.30;;;;;;5003707;28;20929;-78
2022/08/03 03:48:56;;;;;;;4.00;2.40;;;16.90;97.30;;;;;;5017794;28;20201;-78
2022/08/03 03:51:21;;;;;;;3.33;2.30;;;16.90;97.30;;;;;;5000214;28;20803;-78
2022/08/03 03:54:07;;;;;;;6.63;2.90;;;16.90;97.30;;;;;;4997542;28;20697;-76
2022/08/03 03:56:33;;;;;;;2.77;2.20;;;16.80;97.30;;;;;;5014810;28;20248;-78
2022/08/03 03:58:58;;;;;;;3.13;2.40;;;16.80;97.30;;;;;;5016893;28;20432;-78
2022/08/03 04:01:24;;;;;;;3.00;2.83;;;16.80;97.30;;;;;;5016763;28;20173;-77
2022/08/03 04:03:50;;;;;;;2.60;2.40;;;16.90;97.30;;;;;;5017507;28;20181;-77
2022/08/03 04:11:51;;;;;;;2.70;2.50;;;16.90;97.30;;;;;;5019129;28;20447;-77
2022/08/03 04:14:18;;;;;;;2.70;2.47;;;16.90;97.30;;;;;;5001198;28;20456;-78
2022/08/03 04:16:48;;;;;;;3.50;2.60;;;16.90;97.30;;;;;;4997868;28;20544;-76
2022/08/03 04:19:23;;;;;;;2.83;1.63;;;16.90;97.30;;;;;;5013134;28;20441;-77
2022/08/03 04:21:51;;;;;;;2.30;2.10;;;17.00;97.30;;;;;;5012671;28;20915;-77
2022/08/03 04:24:19;;;;;;;3.03;2.83;;;17.00;97.30;;;;;;5012571;28;20417;-77
2022/08/03 04:26:47;;;;;;;3.83;2.53;;;17.00;97.30;;;;;;5013546;28;20453;-77
2022/08/03 04:29:13;;;;;;;3.90;3.37;;;17.00;97.30;;;;;;5008650;28;20450;-77
2022/08/03 04:31:39;;;;;;;3.30;2.63;;;17.00;97.30;;;;;;4978532;28;20418;-77
2022/08/03 04:34:06;;;;;;;3.03;2.07;;;17.10;97.30;;;;;;4978890;28;20469;-77
2022/08/03 04:36:35;;;;;;;2.03;1.90;;;17.10;97.30;;;;;;4987307;28;20516;-78
2022/08/03 04:39:03;;;;;;;5.40;3.20;;;17.10;97.30;;;;;;5012783;28;20587;-77
2022/08/03 04:41:30;;;;;;;13.80;4.23;;;17.20;97.30;;;;;;5023849;28;20455;-78
2022/08/03 04:43:59;;;;;;;2.67;2.33;;;17.20;97.30;;;;;;5016902;28;20507;-77
2022/08/03 04:46:28;;;;;;;3.00;2.77;;;17.20;97.30;;;;;;5015764;28;20417;-78
2022/08/03 04:48:55;;;;;;;2.70;2.13;;;17.30;97.30;;;;;;5015620;28;21036;-78
2022/08/03 04:51:21;;;;;;;2.70;2.57;;;17.30;97.30;;;;;;5016173;28;20420;-77
2022/08/03 04:53:46;;;;;;;3.30;3.10;;;17.30;97.30;;;;;;5031347;28;20964;-77
2022/08/03 04:56:12;;;;;;;4.13;2.60;;;17.30;97.30;;;;;;5015047;28;20520;-77
2022/08/03 04:58:38;;;;;;;2.97;2.77;;;17.40;97.30;;;;;;5014503;28;20203;-77
2022/08/03 05:01:03;;;;;;;3.90;2.83;;;17.40;97.30;;;;;;5013656;28;20212;-78
2022/08/03 05:03:30;;;;;;;4.50;3.43;;;17.50;97.30;;;;;;4991084;28;20256;-78
2022/08/03 05:05:56;;;;;;;3.10;2.90;;;17.50;97.30;;;;;;4984819;28;20246;-79
2022/08/03 05:08:22;;;;;;;5.17;2.87;;;17.60;97.30;;;;;;5021310;28;20499;-78
2022/08/03 05:10:47;;;;;;;3.40;2.33;;;17.60;97.30;;;;;;5019651;28;20232;-78
2022/08/03 05:13:13;;;;;;;4.00;2.83;;;17.60;97.30;;;;;;5019490;28;20203;-79
2022/08/03 05:15:39;;;;;;;4.57;3.17;;;17.70;97.30;;;;;;5019161;28;20624;-78
2022/08/03 05:18:05;;;;;;;3.20;2.70;;;17.70;97.30;;;;;;5013127;28;20267;-79
2022/08/03 05:20:31;;;;;;;6.43;2.90;;;17.70;97.30;;;;;;5014167;28;20476;-78
2022/08/03 05:22:58;;;;;;;4.30;4.03;;;17.70;97.30;;;;;;5020313;28;20181;-78
2022/08/03 05:25:24;;;;;;;3.60;3.43;;;17.80;97.30;;;;;;5018933;28;20492;-79
2022/08/03 05:27:49;;;;;;;7.07;3.43;;;17.80;97.30;;;;;;5036208;28;20448;-78
2022/08/03 05:30:15;;;;;;;2.40;2.20;;;17.90;97.30;;;;;;5019579;28;20173;-78
2022/08/03 05:32:41;;;;;;;3.00;2.83;;;18.00;97.30;;;;;;5011043;28;20193;-78
2022/08/03 05:35:07;;;;;;;4.93;2.93;;;18.00;97.30;;;;;;5015968;28;20245;-78
2022/08/03 05:37:32;;;;;;;3.97;2.50;;;18.10;97.30;;;;;;5016423;28;20181;-79
2022/08/03 05:39:58;;;;;;;3.23;3.03;;;18.20;97.30;;;;;;5019521;28;20523;-79
2022/08/03 05:42:23;;;;;;;3.63;2.83;;;18.30;97.30;;;;;;5020201;28;20220;-79
2022/08/03 05:44:49;;;;;;;3.40;2.50;;;18.40;97.30;;;;;;5020584;28;20220;-78
2022/08/03 05:47:14;;;;;;;3.43;3.23;;;18.50;97.30;;;;;;5019495;28;20252;-77
2022/08/03 05:49:40;;;;;;;2.53;2.43;;;18.60;97.30;;;;;;5018288;28;20250;-79
2022/08/03 05:52:06;;;;;;;2.97;2.77;;;18.70;97.30;;;;;;5018744;28;20637;-78
2022/08/03 05:54:31;;;;;;;3.33;3.20;;;18.80;97.30;;;;;;5004661;28;20202;-78
2022/08/03 05:56:57;;;;;;;8.50;2.60;;;18.80;97.30;;;;;;5000132;28;20212;-78
2022/08/03 05:59:24;;;;;;;2.87;2.30;;;18.90;97.30;;;;;;5000004;28;20197;-77
2022/08/03 06:01:50;;;;;;;3.13;3.00;;;19.00;97.30;;;;;;4998166;28;20182;-78
2022/08/03 06:04:15;;;;;;;23.97;2.33;;;19.20;97.30;;;;;;5012913;28;20466;-78
2022/08/03 06:06:42;;;;;;;2.40;2.00;;;19.30;97.30;;;;;;5018970;28;20181;-78
2022/08/03 06:09:09;;;;;;;3.63;2.27;;;19.40;97.30;;;;;;5017506;28;20201;-78
2022/08/03 06:11:35;;;;;;;2.70;2.10;;;19.50;97.30;;;;;;5010453;28;20431;-78
2022/08/03 06:14:00;;;;;;;3.80;3.20;;;19.60;97.30;;;;;;4983322;28;20497;-78
2022/08/03 06:16:26;;;;;;;3.50;2.47;;;19.70;97.30;;;;;;4978345;28;20790;-78
2022/08/03 06:18:52;;;;;;;1.73;1.70;;;19.80;97.30;;;;;;4980374;28;20199;-77
2022/08/03 06:21:17;;;;;;;2.47;1.93;;;19.90;97.30;;;;;;5017137;28;20526;-78
2022/08/03 06:23:44;;;;;;;2.50;2.30;;;20.00;97.30;;;;;;5015944;28;20669;-78
2022/08/03 06:26:10;;;;;;;2.07;1.93;;;20.10;97.30;;;;;;4991367;28;20190;-78
2022/08/03 06:28:35;;;;;;;3.83;1.93;;;20.20;97.30;;;;;;5023600;28;20928;-78
2022/08/03 06:31:01;;;;;;;2.13;1.97;;;20.30;97.30;;;;;;5018007;28;20638;-78
2022/08/03 06:33:27;;;;;;;4.37;2.17;;;20.40;97.30;;;;;;5017404;28;20287;-77
2022/08/03 06:35:53;;;;;;;4.43;1.90;;;20.50;97.30;;;;;;5017185;28;20667;-78
2022/08/03 06:38:18;;;;;;;1.90;1.73;;;20.60;97.30;;;;;;5014311;28;20447;-80
2022/08/03 06:40:44;;;;;;;2.20;2.00;;;20.80;97.30;;;;;;5011319;28;20177;-78
2022/08/03 06:43:10;;;;;;;1.40;1.30;;;20.80;97.30;;;;;;5017829;28;20268;-78
2022/08/03 06:45:36;;;;;;;2.47;2.27;;;20.90;97.30;;;;;;5006753;28;20332;-78
2022/08/03 06:48:07;;;;;;;4.20;2.00;;;21.00;97.30;;;;;;5016857;28;20463;-78
2022/08/03 06:50:34;;;;;;;2.10;1.50;;;21.10;97.30;;;;;;5006672;28;20231;-78
2022/08/03 06:53:00;;;;;;;2.70;2.50;;;21.20;96.80;;;;;;5000284;28;20977;-78
2022/08/03 06:55:26;;;;;;;7.60;2.37;;;21.30;96.00;;;;;;5033333;28;20416;-79
2022/08/03 06:57:52;;;;;;;2.73;1.80;;;21.50;94.20;;;;;;5017376;28;20173;-78
2022/08/03 07:00:18;;;;;;;2.37;1.70;;;21.70;94.30;;;;;;5017836;28;20443;-78
2022/08/03 07:02:44;;;;;;;2.40;1.53;;;21.80;93.10;;;;;;5034740;28;20478;-78
2022/08/03 07:05:09;;;;;;;2.40;1.67;;;21.90;93.70;;;;;;5010979;28;20177;-78
2022/08/03 07:07:35;;;;;;;1.70;1.60;;;22.10;93.00;;;;;;5020148;28;20176;-78
2022/08/03 07:10:02;;;;;;;4.50;1.83;;;22.20;92.90;;;;;;5020744;28;20703;-78
2022/08/03 07:12:28;;;;;;;2.60;1.63;;;22.30;92.50;;;;;;5021053;28;20408;-77
2022/08/03 07:14:55;;;;;;;1.33;1.30;;;22.50;91.60;;;;;;5020989;28;20455;-78
2022/08/03 07:17:22;;;;;;;3.13;2.47;;;22.60;90.80;;;;;;5020754;28;20470;-79
2022/08/03 07:19:47;;;;;;;1.30;1.20;;;22.80;90.70;;;;;;5011580;28;20464;-78
2022/08/03 07:22:13;;;;;;;4.73;2.40;;;22.90;91.00;;;;;;5017350;28;20420;-79
2022/08/03 07:24:40;;;;;;;1.57;1.53;;;23.10;91.20;;;;;;5021362;28;20169;-78
2022/08/03 07:27:07;;;;;;;1.70;1.10;;;23.20;89.90;;;;;;5020858;28;20235;-78
2022/08/03 07:29:33;;;;;;;2.77;1.60;;;23.40;90.10;;;;;;5021867;28;20558;-78
2022/08/03 07:31:59;;;;;;;1.50;1.40;;;23.50;90.70;;;;;;5004576;28;20420;-78
2022/08/03 07:34:25;;;;;;;14.80;3.20;;;23.70;90.70;;;;;;5011305;28;20525;-78
2022/08/03 07:36:50;;;;;;;1.80;1.70;;;23.80;89.10;;;;;;5020393;28;20721;-78
2022/08/03 07:39:16;;;;;;;1.53;1.50;;;24.00;87.50;;;;;;5021548;28;20197;-78
2022/08/03 07:41:41;;;;;;;29.90;1.93;;;24.10;87.00;;;;;;5028100;28;20283;-79
2022/08/03 07:44:07;;;;;;;2.27;1.50;;;24.20;88.20;;;;;;5016750;28;20268;-78
2022/08/03 07:46:33;;;;;;;2.27;2.10;;;24.30;87.60;;;;;;5020305;28;20187;-79
2022/08/03 07:48:58;;;;;;;15.70;2.37;;;24.50;87.30;;;;;;5006199;28;20201;-78
2022/08/03 07:51:24;;;;;;;1.40;1.30;;;24.60;87.60;;;;;;5016618;28;20181;-78
2022/08/03 07:53:49;;;;;;;1.70;1.40;;;24.80;87.90;;;;;;5036791;28;20218;-79
2022/08/03 07:56:15;;;;;;;1.97;1.83;;;24.90;87.30;;;;;;5020613;28;20605;-79
2022/08/03 07:58:41;;;;;;;1.53;1.43;;;25.00;87.50;;;;;;5036663;28;20541;-78
2022/08/03 08:01:07;;;;;;;2.40;1.60;;;25.10;87.10;;;;;;5021132;28;20177;-79
2022/08/03 08:03:33;;;;;;;4.00;2.10;;;25.20;85.80;;;;;;5012341;28;20433;-79
2022/08/03 08:05:58;;;;;;;1.30;1.20;;;25.30;84.90;;;;;;5014715;28;20439;-78
2022/08/03 08:08:24;;;;;;;1.27;1.17;;;25.40;86.00;;;;;;5000915;28;20296;-78
2022/08/03 08:10:50;;;;;;;1.83;1.73;;;25.60;86.40;;;;;;5002568;28;20236;-78
2022/08/03 08:13:15;;;;;;;3.67;2.40;;;25.70;85.50;;;;;;5019874;28;20240;-78
2022/08/03 08:15:41;;;;;;;1.50;1.40;;;25.80;84.90;;;;;;5006895;28;20727;-78
2022/08/03 08:18:06;;;;;;;1.73;1.67;;;25.90;85.10;;;;;;4992757;28;20241;-79
2022/08/03 08:20:36;;;;;;;4.53;2.47;;;26.00;84.80;;;;;;5012797;28;20181;-78
2022/08/03 08:23:05;;;;;;;1.70;1.60;;;26.20;84.10;;;;;;5020703;28;20181;-78
2022/08/03 08:25:31;;;;;;;1.63;1.53;;;26.40;83.70;;;;;;5020294;28;20965;-79
2022/08/03 08:27:57;;;;;;;1.47;1.40;;;26.40;82.90;;;;;;5010936;28;20435;-78
2022/08/03 08:30:23;;;;;;;1.37;1.27;;;26.60;82.50;;;;;;5000394;28;20416;-78
2022/08/03 08:32:50;;;;;;;3.23;2.10;;;26.70;82.00;;;;;;5009720;28;20856;-78
2022/08/03 08:35:16;;;;;;;1.20;1.13;;;26.80;82.30;;;;;;5014462;28;20475;-78
2022/08/03 08:37:42;;;;;;;1.47;1.40;;;26.90;82.10;;;;;;5011047;28;20496;-79
2022/08/03 08:40:09;;;;;;;1.53;1.43;;;27.10;81.50;;;;;;5020830;28;20448;-79
2022/08/03 08:42:40;;;;;;;4.50;1.03;;;27.20;81.20;;;;;;5042300;22;20505;-82
2022/08/03 08:45:08;;;;;;;1.40;1.30;;;27.40;81.00;;;;;;5040441;28;20787;-82
2022/08/03 08:47:37;;;;;;;1.57;1.47;;;27.40;80.70;;;;;;5040324;28;20418;-83
2022/08/03 08:50:04;;;;;;;2.83;1.60;;;27.50;79.70;;;;;;5040340;28;20824;-82
2022/08/03 08:52:30;;;;;;;3.40;1.57;;;27.60;79.70;;;;;;5039327;28;20426;-82
2022/08/03 08:54:58;;;;;;;1.57;1.47;;;27.60;78.70;;;;;;5040154;28;20480;-82
2022/08/03 08:57:28;;;;;;;5.67;1.73;;;27.70;79.10;;;;;;5040703;28;20421;-81
2022/08/03 08:59:58;;;;;;;1.90;1.80;;;27.80;79.40;;;;;;5058739;28;20485;-82
2022/08/03 09:02:24;;;;;;;1.30;1.20;;;27.80;79.40;;;;;;5041301;28;20493;-81
2022/08/03 09:04:50;;;;;;;1.40;1.20;;;27.90;77.90;;;;;;5039786;28;20948;-81
2022/08/03 09:07:16;;;;;;;2.40;1.93;;;28.00;77.30;;;;;;5039974;28;20422;-81
2022/08/03 09:09:42;;;;;;;1.60;1.50;;;28.10;76.60;;;;;;5040785;28;20444;-81
2022/08/03 09:12:08;;;;;;;2.90;2.03;;;28.20;76.60;;;;;;5039716;28;20411;-82
2022/08/03 09:14:34;;;;;;;1.90;1.80;;;28.30;76.40;;;;;;5040775;28;20227;-82
2022/08/03 09:17:01;;;;;;;1.50;1.50;;;28.40;75.60;;;;;;5040713;28;20262;-81
2022/08/03 09:19:28;;;;;;;2.27;1.93;;;28.40;75.30;;;;;;5040344;28;20442;-81
2022/08/03 09:22:15;;;;;;;1.20;1.20;;;28.50;75.50;;;;;;5038872;28;20415;-82
2022/08/03 09:24:59;;;;;;;1.03;1.00;;;28.50;75.70;;;;;;5038492;28;20433;-82
2022/08/03 09:27:24;;;;;;;1.40;1.30;;;28.70;74.40;;;;;;5057055;28;20445;-82
2022/08/03 09:29:52;;;;;;;1.53;1.43;;;28.80;73.90;;;;;;5038990;28;20446;-82
2022/08/03 09:32:23;;;;;;;1.90;1.23;;;29.00;73.70;;;;;;5037774;28;20186;-82
2022/08/03 09:34:50;;;;;;;1.40;1.20;;;29.00;72.50;;;;;;5037304;28;20446;-81
2022/08/03 09:37:18;;;;;;;1.40;1.30;;;29.00;72.40;;;;;;5038540;28;20410;-82
2022/08/03 09:39:44;;;;;;;2.27;2.07;;;29.00;72.00;;;;;;5038328;28;20422;-81
2022/08/03 09:42:17;;;;;;;1.70;1.70;;;29.00;71.90;;;;;;5037312;28;20483;-82
2022/08/03 09:44:48;;;;;;;1.63;1.50;;;29.00;72.40;;;;;;5037845;28;20430;-83
2022/08/03 09:47:25;;;;;;;1.70;1.60;;;29.10;72.50;;;;;;5037300;28;20430;-82
2022/08/03 09:50:00;;;;;;;2.07;1.93;;;29.20;72.20;;;;;;5037512;28;20422;-81
2022/08/03 09:52:35;;;;;;;1.50;1.37;;;29.40;72.40;;;;;;5037541;28;20434;-82
2022/08/03 09:55:06;;;;;;;1.63;1.10;;;29.50;72.30;;;;;;5037412;28;20558;-82
2022/08/03 09:57:32;;;;;;;1.57;1.47;;;29.60;71.50;;;;;;5037732;28;20407;-82
2022/08/03 10:00:09;;;;;;;3.00;1.63;;;29.70;72.70;;;;;;5056572;28;20438;-82
2022/08/03 10:02:35;;;;;;;1.70;1.33;;;29.80;72.00;;;;;;5055707;28;20167;-82
2022/08/03 10:05:01;;;;;;;1.63;1.53;;;29.90;72.00;;;;;;5037278;28;20417;-82
2022/08/03 10:07:27;;;;;;;2.20;1.77;;;29.90;71.20;;;;;;5036887;28;20172;-82
2022/08/03 10:09:57;;;;;;;1.93;1.53;;;29.90;71.10;;;;;;5036941;28;20192;-82
2022/08/03 10:12:24;;;;;;;3.00;1.57;;;30.00;70.50;;;;;;5035843;28;20334;-82
2022/08/03 10:14:51;;;;;;;1.10;1.00;;;30.10;71.30;;;;;;5019588;28;20450;-82
2022/08/03 10:17:17;;;;;;;1.33;1.23;;;30.30;70.70;;;;;;5035609;28;20792;-82
2022/08/03 10:19:43;;;;;;;4.13;2.80;;;30.30;68.30;;;;;;5037168;28;20464;-82
2022/08/03 10:22:22;;;;;;;1.33;1.07;;;30.30;69.70;;;;;;5036623;28;20438;-82
2022/08/03 10:25:03;;;;;;;1.23;1.17;;;30.30;70.40;;;;;;5035805;28;20176;-82
2022/08/03 10:27:41;;;;;;;1.30;1.20;;;30.40;70.00;;;;;;5024928;28;20414;-82
2022/08/03 10:30:10;;;;;;;1.87;1.57;;;30.50;70.30;;;;;;5036268;28;20460;-82
2022/08/03 10:32:45;;;;;;;1.50;1.40;;;30.50;70.60;;;;;;5035218;28;20516;-82
2022/08/03 10:35:16;;;;;;;1.73;1.40;;;30.60;69.30;;;;;;5037204;28;20457;-83
2022/08/03 10:37:44;;;;;;;1.57;1.50;;;30.80;69.30;;;;;;5036374;28;20434;-82
2022/08/03 10:40:14;;;;;;;1.47;1.03;;;30.90;69.00;;;;;;5053985;28;20564;-82
2022/08/03 10:42:43;;;;;;;1.47;1.40;;;31.00;67.80;;;;;;5034428;28;20465;-83
2022/08/03 10:45:25;;;;;;;1.50;1.40;;;31.00;67.00;;;;;;5035553;28;20422;-82
2022/08/03 10:47:54;;;;;;;4.30;1.67;;;31.00;67.20;;;;;;5036668;28;20418;-81
2022/08/03 10:50:23;;;;;;;1.47;1.20;;;31.00;66.20;;;;;;5036958;28;20426;-81
2022/08/03 10:53:06;;;;;;;1.17;1.00;;;30.90;67.10;;;;;;5036388;28;20506;-82
2022/08/03 10:58:45;;;;;;;1.63;1.53;;;30.90;68.50;;;;;;5045811;28;20434;-81
2022/08/03 11:01:12;;;;;;;1.17;1.10;;;31.00;69.80;;;;;;5054256;28;20449;-82
2022/08/03 11:03:52;;;;;;;1.87;1.10;;;31.10;70.00;;;;;;5036682;28;20467;-83
2022/08/03 11:06:24;;;;;;;1.40;1.30;;;31.20;68.20;;;;;;5035445;28;21004;-83
2022/08/03 11:09:09;;;;;;;0.90;0.80;;;31.40;69.70;;;;;;5035231;28;20449;-83
2022/08/03 11:11:39;;;;;;;1.30;1.20;;;31.60;69.20;;;;;;5022816;28;20419;-83
2022/08/03 11:14:11;;;;;;;1.50;1.40;;;31.70;68.90;;;;;;5035747;28;20824;-82
2022/08/03 11:16:46;;;;;;;1.33;1.23;;;31.70;67.70;;;;;;5035283;28;20425;-82
2022/08/03 11:19:21;;;;;;;2.17;1.43;;;31.70;67.20;;;;;;5052346;28;20430;-83
2022/08/03 11:21:49;;;;;;;2.70;1.77;;;31.80;66.30;;;;;;5033746;28;20402;-82
2022/08/03 11:24:41;;;;;;;3.43;1.77;;;31.90;65.60;;;;;;5033270;28;20414;-82
2022/08/03 11:27:17;;;;;;;1.53;1.43;;;31.80;65.40;;;;;;5035256;28;20726;-83
2022/08/03 11:30:06;;;;;;;1.40;1.30;;;31.70;64.80;;;;;;5023698;28;20445;-82
2022/08/03 11:35:21;;;;;;;1.40;1.30;;;31.70;67.10;;;;;;5042271;28;20510;-82
2022/08/03 11:37:53;;;;;;;1.27;1.20;;;31.80;68.20;;;;;;5035445;28;20422;-82
2022/08/03 11:40:45;;;;;;;1.67;1.20;;;32.00;68.70;;;;;;5036321;28;20537;-82
2022/08/03 11:43:28;;;;;;;1.27;1.20;;;32.10;68.40;;;;;;5052900;28;20466;-82
2022/08/03 11:46:05;;;;;;;1.33;1.23;;;32.20;66.80;;;;;;5033336;28;20927;-82
2022/08/03 11:48:37;;;;;;;1.60;1.50;;;32.30;67.10;;;;;;5056307;28;20832;-82
2022/08/03 11:51:06;;;;;;;1.43;1.33;;;32.40;67.20;;;;;;5027054;28;20414;-82
2022/08/03 11:53:31;;;;;;;1.23;1.00;;;32.50;66.50;;;;;;5037334;28;20456;-82
2022/08/03 11:56:01;;;;;;;3.13;1.27;;;32.50;66.70;;;;;;5038644;28;20699;-82
2022/08/03 11:58:28;;;;;;;1.00;0.90;;;32.60;68.90;;;;;;5055760;28;20187;-82
2022/08/03 12:01:05;;;;;;;1.30;1.20;;;32.70;66.80;;;;;;5038108;28;20429;-83
2022/08/03 12:03:35;;;;;;;1.03;0.93;;;32.80;65.80;;;;;;5038204;28;20425;-82
2022/08/03 12:06:01;;;;;;;0.90;0.90;;;33.00;67.00;;;;;;5037788;28;20513;-82
2022/08/03 12:08:27;;;;;;;2.10;1.73;;;33.10;67.10;;;;;;5018135;28;20478;-82
2022/08/03 12:10:54;;;;;;;1.40;1.30;;;33.20;67.40;;;;;;5031108;28;20458;-82
2022/08/03 12:13:22;;;;;;;4.23;1.30;;;33.30;66.80;;;;;;5037599;28;20594;-82
2022/08/03 12:15:56;;;;;;;2.23;1.47;;;33.40;65.40;;;;;;5034367;28;20774;-82
2022/08/03 12:18:22;;;;;;;1.33;1.30;;;33.40;64.50;;;;;;5038018;28;20442;-83
2022/08/03 12:20:52;;;;;;;1.53;1.50;;;33.30;63.40;;;;;;5037811;28;20422;-82
2022/08/03 12:23:19;;;;;;;1.23;1.17;;;33.20;64.40;;;;;;5036872;28;20501;-82
2022/08/03 12:25:46;;;;;;;1.57;1.37;;;33.30;64.20;;;;;;5037895;28;20418;-82
2022/08/03 12:28:11;;;;;;;1.40;1.30;;;33.40;64.40;;;;;;5037395;28;20443;-82
2022/08/03 12:30:38;;;;;;;1.50;1.40;;;33.50;63.90;;;;;;5037426;28;20415;-82
2022/08/03 12:33:27;;;;;;;2.10;1.63;;;33.60;64.00;;;;;;5035604;28;20184;-82
2022/08/03 12:36:08;;;;;;;1.60;1.50;;;33.70;63.80;;;;;;5017492;28;20450;-83
2022/08/03 12:38:36;;;;;;;2.03;1.90;;;33.80;61.80;;;;;;5024382;28;20828;-83
2022/08/03 12:41:05;;;;;;;1.70;1.53;;;33.90;61.90;;;;;;5054335;28;20403;-83
2022/08/03 12:43:31;;;;;;;1.50;1.40;;;34.10;64.00;;;;;;5037199;28;20469;-82
2022/08/03 12:46:17;;;;;;;1.23;1.13;;;34.10;63.90;;;;;;5024329;28;20432;-82
2022/08/03 12:49:02;;;;;;;2.40;1.70;;;34.30;63.70;;;;;;5028467;28;20869;-82
2022/08/03 12:51:29;;;;;;;1.20;1.10;;;34.30;62.80;;;;;;5043400;28;20409;-82
2022/08/03 12:53:56;;;;;;;1.17;0.93;;;34.30;63.00;;;;;;5044388;28;20453;-83
2022/08/03 12:56:22;;;;;;;1.40;1.30;;;34.40;61.00;;;;;;5037769;28;20410;-82
2022/08/03 12:58:49;;;;;;;1.60;1.27;;;34.50;62.10;;;;;;5036811;28;20442;-83
2022/08/03 13:01:15;;;;;;;1.17;1.07;;;34.60;61.40;;;;;;5024304;28;20443;-82
2022/08/03 13:03:47;;;;;;;1.20;1.10;;;34.70;61.80;;;;;;5036718;28;20418;-82
2022/08/03 13:06:14;;;;;;;0.90;0.80;;;34.80;62.20;;;;;;5036937;28;20513;-82